sensor_id;sensor_type;location;lat;lon;timestamp;pressure;altitude;pressure_sealevel;temperature;humidity
4598;BME280;62772;48.646;8.906;2023-05-12T00:00:32;95965.66;;;9.23;100.00
4598;BME280;62772;48.646;8.906;2023-05-12T00:05:33;95964.47;;;8.98;100.00
4598;BME280;62772;48.646;8.906;2023-05-12T00:10:33;95956.00;;;8.96;100.00
4598;BME280;62772;48.646;8.906;2023-05-12T00:15:35;95956.81;;;9.05;100.00
4598;BME280;62772;48.646;8.906;2023-05-12T00:20:36;95955.69;;;8.97;100.00
4598;BME280;62772;48.646;8.906;2023-05-12T00:25:37;95963.72;;;9.72;100.00
4598;BME280;62772;48.646;8.906;2023-05-12T00:30:37;95956.97;;;10.01;100.00
4598;BME280;62772;48.646;8.906;2023-05-12T00:35:38;95956.03;;;9.71;100.00
4598;BME280;62772;48.646;8.906;2023-05-12T00:40:39;95959.28;;;9.50;100.00
4598;BME280;62772;48.646;8.906;2023-05-12T00:45:40;95955.25;;;9.79;100.00
4598;BME280;62772;48.646;8.906;2023-05-12T00:50:41;95957.91;;;9.79;100.00
4598;BME280;62772;48.646;8.906;2023-05-12T00:55:42;95959.09;;;9.38;100.00
4598;BME280;62772;48.646;8.906;2023-05-12T01:00:43;95957.31;;;9.16;100.00
4598;BME280;62772;48.646;8.906;2023-05-12T01:05:51;95947.31;;;9.21;100.00
4598;BME280;62772;48.646;8.906;2023-05-12T01:10:55;95949.28;;;9.65;100.00
4598;BME280;62772;48.646;8.906;2023-05-12T01:15:58;95946.00;;;9.85;100.00
4598;BME280;62772;48.646;8.906;2023-05-12T01:21:00;95950.81;;;10.27;100.00
4598;BME280;62772;48.646;8.906;2023-05-12T01:26:08;95940.81;;;10.15;100.00
4598;BME280;62772;48.646;8.906;2023-05-12T01:31:29;95946.91;;;10.24;100.00
4598;BME280;62772;48.646;8.906;2023-05-12T01:36:30;95940.97;;;10.01;100.00
4598;BME280;62772;48.646;8.906;2023-05-12T01:41:32;95934.53;;;9.67;100.00
4598;BME280;62772;48.646;8.906;2023-05-12T01:46:32;95932.59;;;9.33;100.00
4598;BME280;62772;48.646;8.906;2023-05-12T01:51:34;95935.31;;;9.85;100.00
4598;BME280;62772;48.646;8.906;2023-05-12T01:56:35;95942.22;;;10.12;100.00
4598;BME280;62772;48.646;8.906;2023-05-12T02:01:35;95940.81;;;10.15;100.00
4598;BME280;62772;48.646;8.906;2023-05-12T02:06:36;95940.16;;;10.53;100.00
4598;BME280;62772;48.646;8.906;2023-05-12T02:11:37;95948.31;;;10.48;100.00
4598;BME280;62772;48.646;8.906;2023-05-12T02:16:38;95949.25;;;10.52;100.00
4598;BME280;62772;48.646;8.906;2023-05-12T02:21:39;95944.22;;;10.42;100.00
4598;BME280;62772;48.646;8.906;2023-05-12T02:26:39;95945.84;;;10.34;100.00
4598;BME280;62772;48.646;8.906;2023-05-12T02:31:40;95951.59;;;10.27;100.00
4598;BME280;62772;48.646;8.906;2023-05-12T02:36:50;95937.66;;;10.04;100.00
4598;BME280;62772;48.646;8.906;2023-05-12T02:41:51;95941.13;;;9.87;100.00
4598;BME280;62772;48.646;8.906;2023-05-12T02:46:52;95936.09;;;9.94;100.00
4598;BME280;62772;48.646;8.906;2023-05-12T02:51:52;95934.84;;;9.74;100.00
4598;BME280;62772;48.646;8.906;2023-05-12T02:56:54;95932.63;;;9.76;100.00
4598;BME280;62772;48.646;8.906;2023-05-12T03:01:57;95937.97;;;9.68;100.00
4598;BME280;62772;48.646;8.906;2023-05-12T03:06:57;95934.69;;;9.88;100.00
4598;BME280;62772;48.646;8.906;2023-05-12T03:11:58;95931.38;;;10.09;100.00
4598;BME280;62772;48.646;8.906;2023-05-12T03:16:58;95933.25;;;10.17;100.00
4598;BME280;62772;48.646;8.906;2023-05-12T03:22:00;95936.69;;;9.48;100.00
4598;BME280;62772;48.646;8.906;2023-05-12T03:27:00;95931.28;;;9.04;100.00
4598;BME280;62772;48.646;8.906;2023-05-12T03:32:01;95936.28;;;9.05;100.00
4598;BME280;62772;48.646;8.906;2023-05-12T03:37:02;95940.88;;;9.14;100.00
4598;BME280;62772;48.646;8.906;2023-05-12T03:42:02;95940.31;;;9.60;100.00
4598;BME280;62772;48.646;8.906;2023-05-12T03:47:03;95934.38;;;9.98;100.00
4598;BME280;62772;48.646;8.906;2023-05-12T03:52:04;95935.78;;;9.87;100.00
4598;BME280;62772;48.646;8.906;2023-05-12T03:57:05;95925.72;;;9.67;100.00
4598;BME280;62772;48.646;8.906;2023-05-12T04:02:05;95931.53;;;9.69;100.00
4598;BME280;62772;48.646;8.906;2023-05-12T04:07:10;95924.94;;;9.75;100.00
4598;BME280;62772;48.646;8.906;2023-05-12T04:12:11;95921.81;;;10.08;100.00
4598;BME280;62772;48.646;8.906;2023-05-12T04:17:12;95932.34;;;10.04;100.00
4598;BME280;62772;48.646;8.906;2023-05-12T04:22:12;95938.63;;;9.82;100.00
4598;BME280;62772;48.646;8.906;2023-05-12T04:27:13;95932.00;;;9.79;100.00
4598;BME280;62772;48.646;8.906;2023-05-12T04:32:14;95937.81;;;9.90;100.00
4598;BME280;62772;48.646;8.906;2023-05-12T04:37:15;95942.03;;;9.65;100.00
4598;BME280;62772;48.646;8.906;2023-05-12T04:42:16;95946.59;;;9.65;100.00
4598;BME280;62772;48.646;8.906;2023-05-12T04:47:16;95946.47;;;9.78;100.00
4598;BME280;62772;48.646;8.906;2023-05-12T04:52:17;95948.03;;;9.88;100.00
4598;BME280;62772;48.646;8.906;2023-05-12T04:57:18;95947.88;;;9.93;100.00
4598;BME280;62772;48.646;8.906;2023-05-12T05:02:18;95948.97;;;9.92;100.00
4598;BME280;62772;48.646;8.906;2023-05-12T05:07:19;95961.50;;;9.57;100.00
4598;BME280;62772;48.646;8.906;2023-05-12T05:12:26;95963.50;;;9.51;100.00
4598;BME280;62772;48.646;8.906;2023-05-12T05:17:26;95961.84;;;9.82;100.00
4598;BME280;62772;48.646;8.906;2023-05-12T05:22:28;95959.94;;;9.91;100.00
4598;BME280;62772;48.646;8.906;2023-05-12T05:27:28;95966.38;;;9.90;100.00
4598;BME280;62772;48.646;8.906;2023-05-12T05:32:30;95967.50;;;9.80;100.00
4598;BME280;62772;48.646;8.906;2023-05-12T05:37:30;95960.25;;;10.24;100.00
4598;BME280;62772;48.646;8.906;2023-05-12T05:42:31;95970.16;;;10.32;100.00
4598;BME280;62772;48.646;8.906;2023-05-12T05:47:32;95975.00;;;10.22;100.00
4598;BME280;62772;48.646;8.906;2023-05-12T05:52:33;95972.31;;;10.30;100.00
4598;BME280;62772;48.646;8.906;2023-05-12T05:57:35;95970.78;;;10.29;100.00
4598;BME280;62772;48.646;8.906;2023-05-12T06:02:37;95975.97;;;9.99;100.00
4598;BME280;62772;48.646;8.906;2023-05-12T06:07:39;95977.19;;;10.28;100.00
4598;BME280;62772;48.646;8.906;2023-05-12T06:12:40;95982.06;;;10.26;100.00
4598;BME280;62772;48.646;8.906;2023-05-12T06:17:40;95986.59;;;10.26;100.00
4598;BME280;62772;48.646;8.906;2023-05-12T06:22:42;95988.22;;;10.18;100.00
4598;BME280;62772;48.646;8.906;2023-05-12T06:27:43;95989.28;;;10.17;100.00
4598;BME280;62772;48.646;8.906;2023-05-12T06:32:44;96000.13;;;10.38;100.00
4598;BME280;62772;48.646;8.906;2023-05-12T06:37:45;96001.41;;;10.41;100.00
4598;BME280;62772;48.646;8.906;2023-05-12T06:42:48;95993.88;;;10.34;100.00
4598;BME280;62772;48.646;8.906;2023-05-12T06:47:53;95995.13;;;10.45;100.00
4598;BME280;62772;48.646;8.906;2023-05-12T06:52:53;95996.66;;;10.46;100.00
4598;BME280;62772;48.646;8.906;2023-05-12T06:57:54;95997.13;;;10.66;100.00
4598;BME280;62772;48.646;8.906;2023-05-12T07:02:55;95988.34;;;10.57;100.00
4598;BME280;62772;48.646;8.906;2023-05-12T07:07:55;95996.03;;;10.32;100.00
4598;BME280;62772;48.646;8.906;2023-05-12T07:12:56;95995.19;;;10.75;100.00
4598;BME280;62772;48.646;8.906;2023-05-12T07:17:56;95994.88;;;10.77;100.00
4598;BME280;62772;48.646;8.906;2023-05-12T07:22:57;95994.09;;;10.85;100.00
4598;BME280;62772;48.646;8.906;2023-05-12T07:27:57;95988.06;;;10.97;100.00
4598;BME280;62772;48.646;8.906;2023-05-12T07:32:58;95994.28;;;11.18;100.00
4598;BME280;62772;48.646;8.906;2023-05-12T07:38:00;95990.78;;;11.27;100.00
4598;BME280;62772;48.646;8.906;2023-05-12T07:43:02;95988.25;;;11.30;100.00
4598;BME280;62772;48.646;8.906;2023-05-12T07:48:02;95999.38;;;11.41;100.00
4598;BME280;62772;48.646;8.906;2023-05-12T07:53:03;96003.16;;;10.93;100.00
4598;BME280;62772;48.646;8.906;2023-05-12T07:58:04;95990.50;;;11.19;100.00
4598;BME280;62772;48.646;8.906;2023-05-12T08:03:05;95991.88;;;11.34;100.00
4598;BME280;62772;48.646;8.906;2023-05-12T08:08:06;95996.84;;;11.06;100.00
4598;BME280;62772;48.646;8.906;2023-05-12T08:13:11;95992.22;;;11.24;100.00
4598;BME280;62772;48.646;8.906;2023-05-12T08:18:11;96002.00;;;11.11;100.00
4598;BME280;62772;48.646;8.906;2023-05-12T08:23:12;95999.53;;;11.06;100.00
4598;BME280;62772;48.646;8.906;2023-05-12T08:28:13;95997.75;;;11.10;100.00
4598;BME280;62772;48.646;8.906;2023-05-12T08:33:13;95993.09;;;10.98;100.00
4598;BME280;62772;48.646;8.906;2023-05-12T08:38:14;95997.94;;;11.14;100.00
4598;BME280;62772;48.646;8.906;2023-05-12T08:43:25;96006.41;;;11.07;100.00
4598;BME280;62772;48.646;8.906;2023-05-12T08:48:30;96006.91;;;11.39;100.00
4598;BME280;62772;48.646;8.906;2023-05-12T08:53:34;96012.94;;;11.27;100.00
4598;BME280;62772;48.646;8.906;2023-05-12T08:58:36;96009.38;;;11.53;100.00
4598;BME280;62772;48.646;8.906;2023-05-12T09:03:36;96005.63;;;11.45;100.00
4598;BME280;62772;48.646;8.906;2023-05-12T09:08:39;96007.97;;;11.76;100.00
4598;BME280;62772;48.646;8.906;2023-05-12T09:18:54;96011.00;;;11.96;100.00
4598;BME280;62772;48.646;8.906;2023-05-12T09:24:00;96002.31;;;11.18;100.00
4598;BME280;62772;48.646;8.906;2023-05-12T09:29:04;96014.38;;;11.84;100.00
4598;BME280;62772;48.646;8.906;2023-05-12T09:34:08;96007.25;;;11.37;100.00
4598;BME280;62772;48.646;8.906;2023-05-12T09:39:09;96010.88;;;11.92;100.00
4598;BME280;62772;48.646;8.906;2023-05-12T09:44:13;96005.75;;;11.78;100.00
4598;BME280;62772;48.646;8.906;2023-05-12T09:49:24;96013.06;;;11.69;100.00
4598;BME280;62772;48.646;8.906;2023-05-12T09:54:30;96000.56;;;11.52;100.00
4598;BME280;62772;48.646;8.906;2023-05-12T09:59:35;96008.66;;;11.94;100.00
4598;BME280;62772;48.646;8.906;2023-05-12T10:04:49;96015.91;;;12.15;100.00
4598;BME280;62772;48.646;8.906;2023-05-12T10:09:50;96014.06;;;12.28;100.00
4598;BME280;62772;48.646;8.906;2023-05-12T10:14:52;96017.22;;;12.09;100.00
4598;BME280;62772;48.646;8.906;2023-05-12T10:19:54;96020.94;;;12.16;100.00
4598;BME280;62772;48.646;8.906;2023-05-12T10:24:55;96008.47;;;12.21;100.00
4598;BME280;62772;48.646;8.906;2023-05-12T10:29:56;96017.09;;;12.47;100.00
4598;BME280;62772;48.646;8.906;2023-05-12T10:35:10;96016.81;;;12.40;100.00
4598;BME280;62772;48.646;8.906;2023-05-12T10:40:22;96016.44;;;12.50;100.00
4598;BME280;62772;48.646;8.906;2023-05-12T10:45:24;96011.25;;;12.66;100.00
4598;BME280;62772;48.646;8.906;2023-05-12T10:50:26;96007.81;;;12.45;100.00
4598;BME280;62772;48.646;8.906;2023-05-12T10:55:41;96008.66;;;12.37;100.00
4598;BME280;62772;48.646;8.906;2023-05-12T11:00:44;96007.88;;;12.36;100.00
4598;BME280;62772;48.646;8.906;2023-05-12T11:05:45;96015.59;;;12.38;100.00
4598;BME280;62772;48.646;8.906;2023-05-12T11:10:46;96012.88;;;12.04;100.00
4598;BME280;62772;48.646;8.906;2023-05-12T11:15:47;96020.28;;;12.41;100.00
4598;BME280;62772;48.646;8.906;2023-05-12T11:20:49;96016.44;;;12.63;100.00
4598;BME280;62772;48.646;8.906;2023-05-12T11:25:50;96020.25;;;12.62;100.00
4598;BME280;62772;48.646;8.906;2023-05-12T11:30:51;96018.13;;;12.67;100.00
4598;BME280;62772;48.646;8.906;2023-05-12T11:35:52;96026.06;;;12.64;100.00
4598;BME280;62772;48.646;8.906;2023-05-12T11:40:52;96024.47;;;12.29;100.00
4598;BME280;62772;48.646;8.906;2023-05-12T11:45:53;96025.44;;;12.79;100.00
4598;BME280;62772;48.646;8.906;2023-05-12T11:50:56;96024.91;;;12.52;100.00
4598;BME280;62772;48.646;8.906;2023-05-12T11:55:57;96016.16;;;12.43;100.00
4598;BME280;62772;48.646;8.906;2023-05-12T12:01:08;96023.88;;;12.78;100.00
4598;BME280;62772;48.646;8.906;2023-05-12T12:06:09;96026.81;;;12.52;100.00
4598;BME280;62772;48.646;8.906;2023-05-12T12:11:10;96034.66;;;12.36;100.00
4598;BME280;62772;48.646;8.906;2023-05-12T12:16:10;96039.69;;;12.16;100.00
4598;BME280;62772;48.646;8.906;2023-05-12T12:21:11;96044.63;;;12.48;100.00
4598;BME280;62772;48.646;8.906;2023-05-12T12:26:11;96048.19;;;12.19;100.00
4598;BME280;62772;48.646;8.906;2023-05-12T12:31:14;96045.53;;;11.89;100.00
4598;BME280;62772;48.646;8.906;2023-05-12T12:36:15;96058.22;;;12.01;100.00
4598;BME280;62772;48.646;8.906;2023-05-12T12:41:15;96054.19;;;11.86;100.00
4598;BME280;62772;48.646;8.906;2023-05-12T12:46:16;96057.97;;;11.93;100.00
4598;BME280;62772;48.646;8.906;2023-05-12T12:51:16;96049.72;;;11.69;100.00
4598;BME280;62772;48.646;8.906;2023-05-12T12:56:17;96061.03;;;11.74;100.00
4598;BME280;62772;48.646;8.906;2023-05-12T13:01:17;96061.22;;;11.99;100.00
4598;BME280;62772;48.646;8.906;2023-05-12T13:06:18;96058.75;;;12.15;100.00
4598;BME280;62772;48.646;8.906;2023-05-12T13:11:18;96063.19;;;12.32;100.00
4598;BME280;62772;48.646;8.906;2023-05-12T13:16:19;96064.81;;;12.45;100.00
4598;BME280;62772;48.646;8.906;2023-05-12T13:21:19;96071.50;;;12.60;100.00
4598;BME280;62772;48.646;8.906;2023-05-12T13:26:19;96065.91;;;12.65;100.00
4598;BME280;62772;48.646;8.906;2023-05-12T13:31:20;96064.06;;;12.78;100.00
4598;BME280;62772;48.646;8.906;2023-05-12T13:36:21;96059.41;;;12.87;100.00
4598;BME280;62772;48.646;8.906;2023-05-12T13:41:21;96064.81;;;13.00;100.00
4598;BME280;62772;48.646;8.906;2023-05-12T13:46:21;96056.72;;;12.54;100.00
4598;BME280;62772;48.646;8.906;2023-05-12T13:51:22;96056.88;;;13.03;100.00
4598;BME280;62772;48.646;8.906;2023-05-12T13:56:23;96050.59;;;12.87;100.00
4598;BME280;62772;48.646;8.906;2023-05-12T14:01:23;96050.63;;;12.99;100.00
4598;BME280;62772;48.646;8.906;2023-05-12T14:06:24;96048.66;;;13.21;100.00
4598;BME280;62772;48.646;8.906;2023-05-12T14:11:24;96048.22;;;12.73;100.00
4598;BME280;62772;48.646;8.906;2023-05-12T14:16:26;96044.00;;;12.51;100.00
4598;BME280;62772;48.646;8.906;2023-05-12T14:21:26;96047.75;;;13.04;100.00
4598;BME280;62772;48.646;8.906;2023-05-12T14:26:27;96046.53;;;13.14;100.00
4598;BME280;62772;48.646;8.906;2023-05-12T14:31:27;96051.34;;;13.21;100.00
4598;BME280;62772;48.646;8.906;2023-05-12T14:36:28;96049.16;;;13.35;100.00
4598;BME280;62772;48.646;8.906;2023-05-12T14:41:28;96051.59;;;13.40;100.00
4598;BME280;62772;48.646;8.906;2023-05-12T14:46:29;96051.63;;;13.07;100.00
4598;BME280;62772;48.646;8.906;2023-05-12T14:51:29;96050.09;;;13.18;100.00
4598;BME280;62772;48.646;8.906;2023-05-12T14:56:30;96054.72;;;13.42;100.00
4598;BME280;62772;48.646;8.906;2023-05-12T15:01:31;96063.09;;;13.29;100.00
4598;BME280;62772;48.646;8.906;2023-05-12T15:06:31;96064.09;;;13.24;100.00
4598;BME280;62772;48.646;8.906;2023-05-12T15:11:32;96060.03;;;13.18;100.00
4598;BME280;62772;48.646;8.906;2023-05-12T15:16:33;96061.16;;;13.04;100.00
4598;BME280;62772;48.646;8.906;2023-05-12T15:21:33;96064.06;;;13.12;100.00
4598;BME280;62772;48.646;8.906;2023-05-12T15:26:36;96066.84;;;13.15;100.00
4598;BME280;62772;48.646;8.906;2023-05-12T15:31:36;96069.66;;;13.19;100.00
4598;BME280;62772;48.646;8.906;2023-05-12T15:36:37;96065.75;;;13.16;100.00
4598;BME280;62772;48.646;8.906;2023-05-12T15:41:37;96061.00;;;12.88;100.00
4598;BME280;62772;48.646;8.906;2023-05-12T15:46:37;96069.25;;;12.62;100.00
4598;BME280;62772;48.646;8.906;2023-05-12T15:51:38;96058.59;;;12.75;100.00
4598;BME280;62772;48.646;8.906;2023-05-12T15:56:38;96070.13;;;12.54;100.00
4598;BME280;62772;48.646;8.906;2023-05-12T16:01:39;96069.47;;;12.57;100.00
4598;BME280;62772;48.646;8.906;2023-05-12T16:06:39;96078.75;;;12.39;100.00
4598;BME280;62772;48.646;8.906;2023-05-12T16:11:40;96074.03;;;12.36;100.00
4598;BME280;62772;48.646;8.906;2023-05-12T16:16:41;96075.41;;;12.42;100.00
4598;BME280;62772;48.646;8.906;2023-05-12T16:21:47;96076.19;;;12.42;100.00
4598;BME280;62772;48.646;8.906;2023-05-12T16:26:47;96070.78;;;12.51;100.00
4598;BME280;62772;48.646;8.906;2023-05-12T16:31:48;96076.56;;;12.53;100.00
4598;BME280;62772;48.646;8.906;2023-05-12T16:36:48;96059.31;;;12.63;100.00
4598;BME280;62772;48.646;8.906;2023-05-12T16:41:48;96064.44;;;12.56;100.00
4598;BME280;62772;48.646;8.906;2023-05-12T16:46:49;96055.88;;;12.62;100.00
4598;BME280;62772;48.646;8.906;2023-05-12T16:51:49;96062.25;;;12.70;100.00
4598;BME280;62772;48.646;8.906;2023-05-12T16:56:49;96061.53;;;12.61;100.00
4598;BME280;62772;48.646;8.906;2023-05-12T17:01:50;96061.22;;;12.62;100.00
4598;BME280;62772;48.646;8.906;2023-05-12T17:06:51;96068.69;;;12.57;100.00
4598;BME280;62772;48.646;8.906;2023-05-12T17:11:52;96065.81;;;12.62;100.00
4598;BME280;62772;48.646;8.906;2023-05-12T17:16:52;96074.47;;;12.80;100.00
4598;BME280;62772;48.646;8.906;2023-05-12T17:21:53;96078.63;;;12.89;100.00
4598;BME280;62772;48.646;8.906;2023-05-12T17:26:53;96072.06;;;12.66;100.00
4598;BME280;62772;48.646;8.906;2023-05-12T17:31:54;96082.59;;;12.50;100.00
4598;BME280;62772;48.646;8.906;2023-05-12T17:36:54;96092.25;;;12.42;100.00
4598;BME280;62772;48.646;8.906;2023-05-12T17:41:55;96083.69;;;12.28;100.00
4598;BME280;62772;48.646;8.906;2023-05-12T17:46:55;96102.84;;;12.18;100.00
4598;BME280;62772;48.646;8.906;2023-05-12T17:51:56;96096.88;;;12.12;100.00
4598;BME280;62772;48.646;8.906;2023-05-12T17:56:56;96102.16;;;12.00;100.00
4598;BME280;62772;48.646;8.906;2023-05-12T18:01:57;96104.06;;;11.90;100.00
4598;BME280;62772;48.646;8.906;2023-05-12T18:06:58;96113.03;;;11.94;100.00
4598;BME280;62772;48.646;8.906;2023-05-12T18:11:59;96113.34;;;11.93;100.00
4598;BME280;62772;48.646;8.906;2023-05-12T18:16:59;96127.41;;;11.81;100.00
4598;BME280;62772;48.646;8.906;2023-05-12T18:22:00;96130.69;;;11.87;100.00
4598;BME280;62772;48.646;8.906;2023-05-12T18:27:00;96124.84;;;11.93;100.00
4598;BME280;62772;48.646;8.906;2023-05-12T18:32:01;96130.22;;;11.85;100.00
4598;BME280;62772;48.646;8.906;2023-05-12T18:37:01;96127.41;;;11.81;100.00
4598;BME280;62772;48.646;8.906;2023-05-12T18:57:48;96141.09;;;11.79;100.00
4598;BME280;62772;48.646;8.906;2023-05-12T19:02:49;96148.16;;;11.84;100.00
4598;BME280;62772;48.646;8.906;2023-05-12T19:07:49;96157.00;;;11.76;100.00
4598;BME280;62772;48.646;8.906;2023-05-12T19:12:50;96160.47;;;11.76;100.00
4598;BME280;62772;48.646;8.906;2023-05-12T19:17:50;96161.94;;;11.65;100.00
4598;BME280;62772;48.646;8.906;2023-05-12T19:22:51;96161.78;;;11.61;100.00
4598;BME280;62772;48.646;8.906;2023-05-12T19:27:51;96168.22;;;11.69;100.00
4598;BME280;62772;48.646;8.906;2023-05-12T19:32:52;96171.66;;;11.70;100.00
4598;BME280;62772;48.646;8.906;2023-05-12T19:37:52;96183.78;;;11.67;100.00
4598;BME280;62772;48.646;8.906;2023-05-12T19:42:53;96188.03;;;11.68;100.00
4598;BME280;62772;48.646;8.906;2023-05-12T19:47:55;96185.91;;;11.44;100.00
4598;BME280;62772;48.646;8.906;2023-05-12T19:52:55;96191.53;;;11.51;100.00
4598;BME280;62772;48.646;8.906;2023-05-12T19:57:56;96195.13;;;11.64;100.00
4598;BME280;62772;48.646;8.906;2023-05-12T20:02:57;96192.94;;;11.57;100.00
4598;BME280;62772;48.646;8.906;2023-05-12T20:07:57;96191.72;;;11.46;100.00
4598;BME280;62772;48.646;8.906;2023-05-12T20:12:57;96196.59;;;11.35;100.00
4598;BME280;62772;48.646;8.906;2023-05-12T20:17:58;96204.03;;;11.30;100.00
4598;BME280;62772;48.646;8.906;2023-05-12T20:22:59;96217.22;;;11.35;100.00
4598;BME280;62772;48.646;8.906;2023-05-12T20:27:59;96216.91;;;11.28;100.00
4598;BME280;62772;48.646;8.906;2023-05-12T20:33:00;96214.72;;;11.21;100.00
4598;BME280;62772;48.646;8.906;2023-05-12T20:38:01;96211.25;;;11.12;100.00
4598;BME280;62772;48.646;8.906;2023-05-12T20:43:02;96218.19;;;11.13;100.00
4598;BME280;62772;48.646;8.906;2023-05-12T20:48:03;96221.31;;;11.06;100.00
4598;BME280;62772;48.646;8.906;2023-05-12T20:53:03;96215.66;;;11.07;100.00
4598;BME280;62772;48.646;8.906;2023-05-12T20:58:04;96221.81;;;10.99;100.00
4598;BME280;62772;48.646;8.906;2023-05-12T21:03:04;96214.41;;;11.14;100.00
4598;BME280;62772;48.646;8.906;2023-05-12T21:08:05;96220.06;;;11.03;100.00
4598;BME280;62772;48.646;8.906;2023-05-12T21:13:06;96215.50;;;10.95;100.00
4598;BME280;62772;48.646;8.906;2023-05-12T21:18:06;96211.72;;;11.05;100.00
4598;BME280;62772;48.646;8.906;2023-05-12T21:23:08;96224.16;;;11.10;100.00
4598;BME280;62772;48.646;8.906;2023-05-12T21:28:10;96225.41;;;10.95;100.00
4598;BME280;62772;48.646;8.906;2023-05-12T21:33:11;96226.34;;;10.90;100.00
4598;BME280;62772;48.646;8.906;2023-05-12T21:38:11;96229.97;;;10.85;100.00
4598;BME280;62772;48.646;8.906;2023-05-12T21:43:12;96235.28;;;10.77;100.00
4598;BME280;62772;48.646;8.906;2023-05-12T21:48:12;96229.31;;;10.71;100.00
4598;BME280;62772;48.646;8.906;2023-05-12T21:53:13;96237.81;;;10.73;100.00
4598;BME280;62772;48.646;8.906;2023-05-12T21:58:13;96228.16;;;10.46;100.00
4598;BME280;62772;48.646;8.906;2023-05-12T22:03:14;96228.66;;;10.57;100.00
4598;BME280;62772;48.646;8.906;2023-05-12T22:08:15;96233.69;;;10.67;100.00
4598;BME280;62772;48.646;8.906;2023-05-12T22:13:16;96237.66;;;10.69;100.00
4598;BME280;62772;48.646;8.906;2023-05-12T22:18:16;96236.34;;;10.49;100.00
4598;BME280;62772;48.646;8.906;2023-05-12T22:23:16;96239.00;;;10.49;100.00
4598;BME280;62772;48.646;8.906;2023-05-12T22:28:17;96236.66;;;10.48;100.00
4598;BME280;62772;48.646;8.906;2023-05-12T22:33:18;96244.34;;;10.49;100.00
4598;BME280;62772;48.646;8.906;2023-05-12T22:38:18;96239.63;;;10.46;100.00
4598;BME280;62772;48.646;8.906;2023-05-12T22:43:19;96248.25;;;10.43;100.00
4598;BME280;62772;48.646;8.906;2023-05-12T22:48:19;96247.47;;;10.43;100.00
4598;BME280;62772;48.646;8.906;2023-05-12T22:53:20;96246.25;;;10.49;100.00
4598;BME280;62772;48.646;8.906;2023-05-12T22:58:20;96239.78;;;10.41;100.00
4598;BME280;62772;48.646;8.906;2023-05-12T23:03:21;96247.94;;;10.36;100.00
4598;BME280;62772;48.646;8.906;2023-05-12T23:08:21;96252.41;;;10.27;100.00
4598;BME280;62772;48.646;8.906;2023-05-12T23:13:22;96242.34;;;10.15;100.00
4598;BME280;62772;48.646;8.906;2023-05-12T23:18:22;96238.41;;;9.81;100.00
4598;BME280;62772;48.646;8.906;2023-05-12T23:23:22;96232.50;;;9.61;100.00
4598;BME280;62772;48.646;8.906;2023-05-12T23:28:23;96231.84;;;9.56;100.00
4598;BME280;62772;48.646;8.906;2023-05-12T23:33:24;96234.06;;;9.85;100.00
4598;BME280;62772;48.646;8.906;2023-05-12T23:38:25;96226.47;;;9.47;100.00
4598;BME280;62772;48.646;8.906;2023-05-12T23:43:25;96234.22;;;9.35;100.00
4598;BME280;62772;48.646;8.906;2023-05-12T23:48:26;96225.72;;;8.87;100.00
4598;BME280;62772;48.646;8.906;2023-05-12T23:53:27;96224.78;;;9.29;100.00
4598;BME280;62772;48.646;8.906;2023-05-12T23:58:28;96233.59;;;8.93;100.00
